createdAt,value
2022-07-26T00:01:31.610Z,19.79
2022-07-26T00:03:59.058Z,19.72
2022-07-26T00:06:26.329Z,19.69
2022-07-26T00:08:53.187Z,19.71
2022-07-26T00:11:20.039Z,19.76
2022-07-26T00:13:47.647Z,19.81
2022-07-26T00:16:14.834Z,19.70
2022-07-26T00:18:41.758Z,19.57
2022-07-26T00:21:08.447Z,19.61
2022-07-26T00:23:35.270Z,19.66
2022-07-26T00:26:02.155Z,19.62
2022-07-26T00:28:28.646Z,19.69
2022-07-26T00:30:55.438Z,19.65
2022-07-26T00:33:21.924Z,19.62
2022-07-26T00:35:48.648Z,19.51
2022-07-26T00:38:15.274Z,19.49
2022-07-26T00:40:41.791Z,19.47
2022-07-26T00:43:08.191Z,19.52
2022-07-26T00:45:34.650Z,19.63
2022-07-26T00:48:01.210Z,19.62
2022-07-26T00:50:28.067Z,19.66
2022-07-26T00:52:55.223Z,19.59
2022-07-26T00:55:21.853Z,19.51
2022-07-26T00:57:49.515Z,19.51
2022-07-26T01:00:19.231Z,19.53
2022-07-26T01:02:46.547Z,19.58
2022-07-26T01:05:13.449Z,19.48
2022-07-26T01:07:40.218Z,19.49
2022-07-26T01:10:12.330Z,19.50
2022-07-26T01:12:40.043Z,19.40
2022-07-26T01:15:07.837Z,19.34
2022-07-26T01:17:36.321Z,19.45
2022-07-26T01:20:07.787Z,19.33
2022-07-26T01:22:34.239Z,19.37
2022-07-26T01:25:00.759Z,19.29
2022-07-26T01:27:32.029Z,19.16
2022-07-26T01:30:00.419Z,19.21
2022-07-26T01:32:27.696Z,19.18
2022-07-26T01:34:54.279Z,19.09
2022-07-26T01:37:20.767Z,19.05
2022-07-26T01:39:47.431Z,19.09
2022-07-26T01:42:13.882Z,18.92
2022-07-26T01:44:40.642Z,19.06
2022-07-26T01:47:07.292Z,18.95
2022-07-26T01:49:33.790Z,18.97
2022-07-26T01:52:00.602Z,18.98
2022-07-26T01:54:27.650Z,18.99
2022-07-26T01:56:54.122Z,18.98
2022-07-26T01:59:20.619Z,18.97
2022-07-26T02:01:47.210Z,19.00
2022-07-26T02:04:33.735Z,19.06
2022-07-26T02:07:00.375Z,19.20
2022-07-26T02:09:29.971Z,19.07
2022-07-26T02:12:04.565Z,19.10
2022-07-26T02:14:31.105Z,19.07
2022-07-26T02:17:00.373Z,18.98
2022-07-26T02:19:31.800Z,19.05
2022-07-26T02:21:59.319Z,18.95
2022-07-26T02:24:30.319Z,18.87
2022-07-26T02:26:58.588Z,18.71
2022-07-26T02:29:27.541Z,18.81
2022-07-26T02:31:54.186Z,18.83
2022-07-26T02:34:20.681Z,18.88
2022-07-26T02:36:47.473Z,18.72
2022-07-26T02:39:14.371Z,18.84
2022-07-26T02:41:40.854Z,18.70
2022-07-26T02:44:08.240Z,18.72
2022-07-26T02:46:35.370Z,18.61
2022-07-26T02:49:02.915Z,18.62
2022-07-26T02:51:29.458Z,18.64
2022-07-26T02:53:56.380Z,18.66
2022-07-26T02:56:24.400Z,18.52
2022-07-26T02:58:50.835Z,18.54
2022-07-26T03:01:17.368Z,18.50
2022-07-26T03:03:47.296Z,18.55
2022-07-26T03:06:17.231Z,18.54
2022-07-26T03:08:43.701Z,18.62
2022-07-26T03:11:12.123Z,18.60
2022-07-26T03:13:39.020Z,18.67
2022-07-26T03:16:06.807Z,18.60
2022-07-26T03:18:33.582Z,18.64
2022-07-26T03:21:00.429Z,18.48
2022-07-26T03:23:28.310Z,18.51
2022-07-26T03:25:55.389Z,18.63
2022-07-26T03:28:21.922Z,18.54
2022-07-26T03:30:48.826Z,18.54
2022-07-26T03:33:30.667Z,18.58
2022-07-26T03:35:57.275Z,18.55
2022-07-26T03:38:23.978Z,18.43
2022-07-26T03:40:50.768Z,18.45
2022-07-26T03:43:21.223Z,18.44
2022-07-26T03:45:49.590Z,18.46
2022-07-26T03:48:16.046Z,18.51
2022-07-26T03:50:43.026Z,18.44
2022-07-26T03:53:09.455Z,18.42
2022-07-26T03:55:54.739Z,18.46
2022-07-26T03:58:21.906Z,18.59
2022-07-26T04:00:48.849Z,18.54
2022-07-26T04:03:15.568Z,18.46
2022-07-26T04:05:46.342Z,18.46
2022-07-26T04:08:15.736Z,18.51
2022-07-26T04:10:45.758Z,18.54
2022-07-26T04:13:12.257Z,18.60
2022-07-26T04:15:38.676Z,18.61
2022-07-26T04:18:05.191Z,18.64
2022-07-26T04:20:31.835Z,18.52
2022-07-26T04:22:58.606Z,18.44
2022-07-26T04:25:25.766Z,18.36
2022-07-26T04:27:52.392Z,18.29
2022-07-26T04:30:18.858Z,18.43
2022-07-26T04:32:46.482Z,18.33
2022-07-26T04:35:14.631Z,18.40
2022-07-26T04:37:42.824Z,18.35
2022-07-26T04:40:11.442Z,18.28
2022-07-26T04:42:39.543Z,18.23
2022-07-26T04:45:08.459Z,18.30
2022-07-26T04:47:35.489Z,18.55
2022-07-26T04:50:03.848Z,18.36
2022-07-26T04:52:30.371Z,18.33
2022-07-26T04:54:56.918Z,18.38
2022-07-26T04:57:23.554Z,18.40
2022-07-26T04:59:58.316Z,18.51
2022-07-26T05:02:36.828Z,18.55
2022-07-26T05:05:04.972Z,18.55
2022-07-26T05:07:42.062Z,18.56
2022-07-26T05:10:10.132Z,18.62
2022-07-26T05:12:37.011Z,18.64
2022-07-26T05:15:04.520Z,18.69
2022-07-26T05:17:31.190Z,18.73
2022-07-26T05:20:03.365Z,18.67
2022-07-26T05:22:30.505Z,18.79
2022-07-26T05:24:57.123Z,18.79
2022-07-26T05:27:23.613Z,18.68
2022-07-26T05:29:50.430Z,18.67
2022-07-26T05:32:16.996Z,18.68
2022-07-26T05:34:43.423Z,18.74
2022-07-26T05:37:10.523Z,18.82
2022-07-26T05:39:37.392Z,18.84
2022-07-26T05:42:03.888Z,18.73
2022-07-26T05:44:30.483Z,18.80
2022-07-26T05:46:57.028Z,18.84
2022-07-26T05:49:23.599Z,18.91
2022-07-26T05:51:50.375Z,19.04
2022-07-26T05:54:17.031Z,19.03
2022-07-26T05:56:49.444Z,18.95
2022-07-26T05:59:15.922Z,18.97
2022-07-26T06:01:42.403Z,18.93
2022-07-26T06:04:10.682Z,19.05
2022-07-26T06:06:37.428Z,19.09
2022-07-26T06:09:04.009Z,19.04
2022-07-26T06:11:30.561Z,19.11
2022-07-26T06:13:57.032Z,19.17
2022-07-26T06:16:23.520Z,19.23
2022-07-26T06:18:50.708Z,19.39
2022-07-26T06:21:17.169Z,19.30
2022-07-26T06:23:43.605Z,19.37
2022-07-26T06:26:10.123Z,19.58
2022-07-26T06:28:38.798Z,19.54
2022-07-26T06:31:05.951Z,19.48
2022-07-26T06:33:33.003Z,19.54
2022-07-26T06:35:59.525Z,19.75
2022-07-26T06:38:26.658Z,19.79
2022-07-26T06:40:53.340Z,19.93
2022-07-26T06:43:20.702Z,19.77
2022-07-26T06:45:47.445Z,19.73
2022-07-26T06:48:14.415Z,19.54
2022-07-26T06:50:41.239Z,19.73
2022-07-26T06:53:07.734Z,19.54
2022-07-26T06:55:34.209Z,19.76
2022-07-26T06:58:00.710Z,19.97
2022-07-26T07:00:27.412Z,20.05
2022-07-26T07:02:54.019Z,20.12
2022-07-26T07:05:20.546Z,20.27
2022-07-26T07:07:47.186Z,20.24
2022-07-26T07:10:14.909Z,20.01
2022-07-26T07:12:43.584Z,20.13
2022-07-26T07:15:10.761Z,20.18
2022-07-26T07:17:37.359Z,20.44
2022-07-26T07:20:05.328Z,20.72
2022-07-26T07:22:32.430Z,20.69
2022-07-26T07:24:59.052Z,20.72
2022-07-26T07:27:27.330Z,20.57
2022-07-26T07:29:54.340Z,20.76
2022-07-26T07:32:22.935Z,20.84
2022-07-26T07:34:51.691Z,21.07
2022-07-26T07:37:20.180Z,21.15
2022-07-26T07:39:50.318Z,21.34
2022-07-26T07:42:18.408Z,21.59
2022-07-26T07:44:44.890Z,20.99
2022-07-26T07:47:11.977Z,20.99
2022-07-26T07:49:38.561Z,20.96
2022-07-26T07:52:05.356Z,20.87
2022-07-26T07:54:31.900Z,20.83
2022-07-26T07:56:58.978Z,20.65
2022-07-26T07:59:25.996Z,20.48
2022-07-26T08:01:52.600Z,20.45
2022-07-26T08:04:19.295Z,20.17
2022-07-26T08:06:50.380Z,20.13
2022-07-26T08:09:18.971Z,19.98
2022-07-26T08:11:45.765Z,19.38
2022-07-26T08:14:17.961Z,18.52
2022-07-26T08:16:44.748Z,18.04
2022-07-26T08:19:11.555Z,17.75
2022-07-26T08:21:38.369Z,17.50
2022-07-26T08:24:06.552Z,17.43
2022-07-26T08:26:33.249Z,17.33
2022-07-26T08:29:00.536Z,17.19
2022-07-26T08:31:29.042Z,17.09
2022-07-26T08:33:56.043Z,17.21
2022-07-26T08:36:23.051Z,17.16
2022-07-26T08:38:49.636Z,17.10
2022-07-26T08:41:17.951Z,17.20
2022-07-26T08:43:52.362Z,17.02
2022-07-26T08:46:25.790Z,16.89
2022-07-26T08:48:54.071Z,17.01
2022-07-26T08:51:23.867Z,16.92
2022-07-26T08:53:53.982Z,17.05
2022-07-26T08:56:20.465Z,17.06
2022-07-26T08:58:47.274Z,17.04
2022-07-26T09:01:14.376Z,17.15
2022-07-26T09:03:45.138Z,17.25
2022-07-26T09:06:17.926Z,17.37
2022-07-26T09:08:47.063Z,17.34
2022-07-26T09:11:28.511Z,17.39
2022-07-26T09:13:59.904Z,17.47
2022-07-26T09:16:28.163Z,17.44
2022-07-26T09:19:07.895Z,17.59
2022-07-26T09:21:39.188Z,17.50
2022-07-26T09:24:06.094Z,17.50
2022-07-26T09:26:33.204Z,17.55
2022-07-26T09:29:09.676Z,17.46
2022-07-26T09:31:37.854Z,17.69
2022-07-26T09:34:06.421Z,17.92
2022-07-26T09:36:33.330Z,18.09
2022-07-26T09:39:02.629Z,18.06
2022-07-26T09:41:34.804Z,18.11
2022-07-26T09:44:19.464Z,18.29
2022-07-26T09:46:58.149Z,18.53
2022-07-26T09:49:30.971Z,18.49
2022-07-26T09:52:15.916Z,18.52
2022-07-26T09:54:45.872Z,18.64
2022-07-26T09:57:19.301Z,18.88
2022-07-26T09:59:47.257Z,18.76
2022-07-26T10:02:14.027Z,18.67
2022-07-26T10:04:44.353Z,18.50
2022-07-26T10:07:11.181Z,18.46
2022-07-26T10:09:46.393Z,18.36
2022-07-26T10:12:15.516Z,18.35
2022-07-26T10:14:45.683Z,18.29
2022-07-26T10:17:32.347Z,17.93
2022-07-26T10:20:10.744Z,17.73
2022-07-26T10:22:47.821Z,17.68
2022-07-26T10:25:17.289Z,17.78
2022-07-26T10:27:48.854Z,18.02
2022-07-26T10:30:18.338Z,18.22
2022-07-26T10:32:50.778Z,18.05
2022-07-26T10:35:44.960Z,18.39
2022-07-26T10:38:26.114Z,18.64
2022-07-26T10:41:03.228Z,19.02
2022-07-26T10:43:40.660Z,19.41
2022-07-26T10:46:17.672Z,19.72
2022-07-26T10:49:04.572Z,19.99
2022-07-26T10:51:39.378Z,19.88
2022-07-26T10:54:09.010Z,19.59
2022-07-26T10:56:36.069Z,19.70
2022-07-26T10:59:04.852Z,19.53
2022-07-26T11:01:39.555Z,19.44
2022-07-26T11:04:17.390Z,19.41
2022-07-26T11:06:45.531Z,19.44
2022-07-26T11:09:12.595Z,19.66
2022-07-26T11:11:39.534Z,19.60
2022-07-26T11:14:15.896Z,19.62
2022-07-26T11:16:42.914Z,19.88
2022-07-26T11:19:14.786Z,19.98
2022-07-26T11:21:41.959Z,19.84
2022-07-26T11:24:09.313Z,19.90
2022-07-26T11:26:46.814Z,20.45
2022-07-26T11:29:17.501Z,20.85
2022-07-26T11:31:55.922Z,20.99
2022-07-26T11:34:33.717Z,21.12
2022-07-26T11:37:03.284Z,21.26
2022-07-26T11:39:32.748Z,21.51
2022-07-26T11:42:03.251Z,21.60
2022-07-26T11:44:32.052Z,21.60
2022-07-26T11:47:00.002Z,21.45
2022-07-26T11:50:01.202Z,21.33
2022-07-26T11:52:21.272Z,21.05
2022-07-26T11:54:53.407Z,20.79
2022-07-26T11:57:20.754Z,20.58
2022-07-26T11:59:50.690Z,20.44
2022-07-26T12:02:17.795Z,20.42
2022-07-26T12:04:44.827Z,20.60
2022-07-26T12:07:18.302Z,20.41
2022-07-26T12:09:52.947Z,20.35
2022-07-26T12:12:27.336Z,20.34
2022-07-26T12:15:05.783Z,20.59
2022-07-26T12:17:34.514Z,20.54
2022-07-26T12:20:17.451Z,20.47
2022-07-26T12:23:00.387Z,20.38
2022-07-26T12:25:29.185Z,20.46
2022-07-26T12:27:56.896Z,20.51
2022-07-26T12:30:23.840Z,20.70
2022-07-26T12:32:55.321Z,20.78
2022-07-26T12:35:32.203Z,20.85
2022-07-26T12:37:59.656Z,21.09
2022-07-26T12:40:30.457Z,21.26
2022-07-26T12:43:02.778Z,20.99
2022-07-26T12:45:35.068Z,21.02
2022-07-26T12:48:06.530Z,21.33
2022-07-26T12:50:33.382Z,21.40
2022-07-26T12:53:02.825Z,21.45
2022-07-26T12:55:29.650Z,21.49
2022-07-26T12:57:57.187Z,21.61
2022-07-26T13:00:24.381Z,21.57
2022-07-26T13:02:52.796Z,21.21
2022-07-26T13:05:19.324Z,20.92
2022-07-26T13:07:45.895Z,20.87
2022-07-26T13:12:59.538Z,20.02
2022-07-26T13:15:37.090Z,19.88
2022-07-26T13:18:05.326Z,19.88
2022-07-26T13:20:32.625Z,19.96
2022-07-26T13:22:59.320Z,19.91
2022-07-26T13:25:29.487Z,19.91
2022-07-26T13:28:04.667Z,19.86
2022-07-26T13:30:31.229Z,19.87
2022-07-26T13:32:57.821Z,19.91
2022-07-26T13:35:24.468Z,20.01
2022-07-26T13:37:50.873Z,20.04
2022-07-26T13:40:17.432Z,20.16
2022-07-26T13:42:43.888Z,20.33
2022-07-26T13:45:11.166Z,20.39
2022-07-26T13:47:37.604Z,20.58
2022-07-26T13:50:04.332Z,20.66
2022-07-26T13:52:33.665Z,20.63
2022-07-26T13:55:00.121Z,20.57
2022-07-26T13:57:47.998Z,20.61
2022-07-26T14:00:14.138Z,20.41
2022-07-26T14:02:40.644Z,20.17
2022-07-26T14:05:07.477Z,19.86
2022-07-26T14:07:33.952Z,19.84
2022-07-26T14:10:00.400Z,19.83
2022-07-26T14:12:27.279Z,19.73
2022-07-26T14:14:53.718Z,19.82
2022-07-26T14:17:20.444Z,19.89
2022-07-26T14:19:46.849Z,19.77
2022-07-26T14:22:13.481Z,19.79
2022-07-26T14:24:39.953Z,20.05
2022-07-26T14:27:06.406Z,20.11
2022-07-26T14:29:32.909Z,20.33
2022-07-26T14:31:59.576Z,20.42
2022-07-26T14:34:26.460Z,20.57
2022-07-26T14:36:52.890Z,20.49
2022-07-26T14:39:19.352Z,20.47
2022-07-26T14:41:45.908Z,20.47
2022-07-26T14:44:12.733Z,20.42
2022-07-26T14:46:39.910Z,20.49
2022-07-26T14:49:06.441Z,20.43
2022-07-26T14:51:32.925Z,20.66
2022-07-26T14:53:59.565Z,21.05
2022-07-26T14:56:26.204Z,21.21
2022-07-26T14:58:52.943Z,21.18
2022-07-26T15:01:19.592Z,21.06
2022-07-26T15:03:46.072Z,21.04
2022-07-26T15:06:12.771Z,20.85
2022-07-26T15:08:39.261Z,20.50
2022-07-26T15:11:05.979Z,20.40
2022-07-26T15:13:32.651Z,20.32
2022-07-26T15:15:59.503Z,20.18
2022-07-26T15:18:26.575Z,20.23
2022-07-26T15:20:53.645Z,20.14
2022-07-26T15:23:20.159Z,20.04
2022-07-26T15:25:49.686Z,20.03
2022-07-26T15:28:16.762Z,20.01
2022-07-26T15:30:43.572Z,19.74
2022-07-26T15:33:10.042Z,19.71
2022-07-26T15:35:37.116Z,19.76
2022-07-26T15:38:04.158Z,19.81
2022-07-26T15:40:31.080Z,19.70
2022-07-26T15:42:57.631Z,19.79
2022-07-26T15:45:24.910Z,19.71
2022-07-26T15:47:55.924Z,19.63
2022-07-26T15:50:24.837Z,19.69
2022-07-26T15:52:51.262Z,19.72
2022-07-26T15:55:19.079Z,19.80
2022-07-26T15:57:47.556Z,19.83
2022-07-26T16:00:15.216Z,19.85
2022-07-26T16:02:42.206Z,20.00
2022-07-26T16:05:09.547Z,20.04
2022-07-26T16:07:36.322Z,19.97
2022-07-26T16:10:03.764Z,19.94
2022-07-26T16:12:30.265Z,19.87
2022-07-26T16:14:57.224Z,19.79
2022-07-26T16:17:23.840Z,19.79
2022-07-26T16:19:50.696Z,19.74
2022-07-26T16:22:17.432Z,19.83
2022-07-26T16:24:43.937Z,19.97
2022-07-26T16:27:10.360Z,19.98
2022-07-26T16:29:36.880Z,19.96
2022-07-26T16:32:03.759Z,20.11
2022-07-26T16:34:32.680Z,20.21
2022-07-26T16:36:59.314Z,20.35
2022-07-26T16:39:25.860Z,20.28
2022-07-26T16:41:52.571Z,20.16
2022-07-26T16:44:19.104Z,20.21
2022-07-26T16:46:45.601Z,20.15
2022-07-26T16:49:12.522Z,20.12
2022-07-26T16:51:39.347Z,19.87
2022-07-26T16:54:05.857Z,20.01
2022-07-26T16:56:32.527Z,19.79
2022-07-26T16:58:59.273Z,19.80
2022-07-26T17:01:25.941Z,19.79
2022-07-26T17:03:52.540Z,19.88
2022-07-26T17:06:19.052Z,19.97
2022-07-26T17:08:45.503Z,20.02
2022-07-26T17:11:12.128Z,19.88
2022-07-26T17:13:38.624Z,19.82
2022-07-26T17:16:05.343Z,19.67
2022-07-26T17:18:32.048Z,19.60
2022-07-26T17:20:59.232Z,19.62
2022-07-26T17:23:26.668Z,19.75
2022-07-26T17:25:53.118Z,19.79
2022-07-26T17:28:19.721Z,19.86
2022-07-26T17:30:46.195Z,19.83
2022-07-26T17:33:12.759Z,19.72
2022-07-26T17:35:39.299Z,19.66
2022-07-26T17:38:05.734Z,19.61
2022-07-26T17:40:34.246Z,19.47
2022-07-26T17:43:00.973Z,19.47
2022-07-26T17:45:28.109Z,19.32
2022-07-26T17:47:54.756Z,19.38
2022-07-26T17:50:38.291Z,19.38
2022-07-26T17:53:05.256Z,19.28
2022-07-26T17:55:31.747Z,19.31
2022-07-26T17:57:58.514Z,19.34
2022-07-26T18:00:28.811Z,19.30
2022-07-26T18:02:56.155Z,19.37
2022-07-26T18:05:24.289Z,19.20
2022-07-26T18:07:52.739Z,19.17
2022-07-26T18:10:19.467Z,19.12
2022-07-26T18:12:46.011Z,18.99
2022-07-26T18:15:12.671Z,18.88
2022-07-26T18:17:39.661Z,18.83
2022-07-26T18:20:07.400Z,18.77
2022-07-26T18:22:34.091Z,18.59
2022-07-26T18:25:00.549Z,18.51
2022-07-26T18:27:28.071Z,18.61
2022-07-26T18:29:55.422Z,18.57
2022-07-26T18:32:22.566Z,18.54
2022-07-26T18:34:52.151Z,18.60
2022-07-26T18:37:20.608Z,18.54
2022-07-26T18:39:48.124Z,18.44
2022-07-26T18:42:14.942Z,18.62
2022-07-26T18:44:41.459Z,18.56
2022-07-26T18:47:08.021Z,18.47
2022-07-26T18:49:35.393Z,18.39
2022-07-26T18:52:08.430Z,18.36
2022-07-26T18:54:35.996Z,18.28
2022-07-26T18:57:02.670Z,18.28
2022-07-26T18:59:29.731Z,18.27
2022-07-26T19:01:57.898Z,18.16
2022-07-26T19:04:25.094Z,18.13
2022-07-26T19:06:51.998Z,18.22
2022-07-26T19:09:18.479Z,18.21
2022-07-26T19:11:48.031Z,18.15
2022-07-26T19:14:14.600Z,18.07
2022-07-26T19:16:41.110Z,18.01
2022-07-26T19:19:07.525Z,18.01
2022-07-26T19:21:34.313Z,18.01
2022-07-26T19:24:00.745Z,18.04
2022-07-26T19:26:27.770Z,18.00
2022-07-26T19:28:54.354Z,17.94
2022-07-26T19:31:22.117Z,17.84
2022-07-26T19:33:48.978Z,17.77
2022-07-26T19:36:18.152Z,17.73
2022-07-26T19:38:52.359Z,17.68
2022-07-26T19:41:19.926Z,17.69
2022-07-26T19:43:46.492Z,17.59
2022-07-26T19:46:13.049Z,17.62
2022-07-26T19:48:39.714Z,17.54
2022-07-26T19:51:06.242Z,17.43
2022-07-26T19:53:32.825Z,17.34
2022-07-26T19:55:59.574Z,17.31
2022-07-26T19:58:26.971Z,17.20
2022-07-26T20:00:53.894Z,17.16
2022-07-26T20:03:20.602Z,17.10
2022-07-26T20:05:47.112Z,17.00
2022-07-26T20:08:13.601Z,16.94
2022-07-26T20:10:40.140Z,16.85
2022-07-26T20:13:06.761Z,16.87
2022-07-26T20:15:33.207Z,16.98
2022-07-26T20:17:59.872Z,16.79
2022-07-26T20:20:26.872Z,16.71
2022-07-26T20:22:53.390Z,16.74
2022-07-26T20:25:21.883Z,16.71
2022-07-26T20:27:51.332Z,16.54
2022-07-26T20:30:18.270Z,16.56
2022-07-26T20:32:44.921Z,16.46
2022-07-26T20:35:11.406Z,16.38
2022-07-26T20:37:38.441Z,16.41
2022-07-26T20:40:05.626Z,16.36
2022-07-26T20:42:34.849Z,16.36
2022-07-26T20:45:01.971Z,16.38
2022-07-26T20:47:28.828Z,16.25
2022-07-26T20:49:58.474Z,16.21
2022-07-26T20:52:29.598Z,16.14
2022-07-26T20:54:56.267Z,16.10
2022-07-26T20:57:23.482Z,16.07
2022-07-26T20:59:50.093Z,16.06
2022-07-26T21:02:16.693Z,16.14
2022-07-26T21:04:43.570Z,16.01
2022-07-26T21:07:10.034Z,15.99
2022-07-26T21:09:36.936Z,15.90
2022-07-26T21:12:03.969Z,15.92
2022-07-26T21:14:30.564Z,15.94
2022-07-26T21:16:57.538Z,16.01
2022-07-26T21:19:24.017Z,15.97
2022-07-26T21:21:51.250Z,15.93
2022-07-26T21:24:17.785Z,15.93
2022-07-26T21:26:45.459Z,15.96
2022-07-26T21:29:12.198Z,15.89
2022-07-26T21:31:38.911Z,15.89
2022-07-26T21:34:05.379Z,15.82
2022-07-26T21:36:31.887Z,15.77
2022-07-26T21:38:58.921Z,15.72
2022-07-26T21:41:25.350Z,15.68
2022-07-26T21:43:52.194Z,15.63
2022-07-26T21:46:18.745Z,15.51
2022-07-26T21:48:45.329Z,15.50
2022-07-26T21:51:11.867Z,15.45
2022-07-26T21:53:38.331Z,15.35
2022-07-26T21:56:05.599Z,15.32
2022-07-26T21:58:36.329Z,15.34
2022-07-26T22:01:07.046Z,15.40
2022-07-26T22:03:35.972Z,15.37
2022-07-26T22:06:02.481Z,15.27
2022-07-26T22:08:29.059Z,15.23
2022-07-26T22:10:55.554Z,15.14
2022-07-26T22:13:22.067Z,15.21
2022-07-26T22:15:49.176Z,15.17
2022-07-26T22:18:15.919Z,15.24
2022-07-26T22:20:42.989Z,15.15
2022-07-26T22:23:12.212Z,15.05
2022-07-26T22:25:39.525Z,15.06
2022-07-26T22:28:07.614Z,15.04
2022-07-26T22:30:35.043Z,15.02
2022-07-26T22:33:04.935Z,15.01
2022-07-26T22:35:36.390Z,15.01
2022-07-26T22:38:08.323Z,15.06
2022-07-26T22:40:35.526Z,15.06
2022-07-26T22:43:05.272Z,14.95
2022-07-26T22:45:32.563Z,14.91
2022-07-26T22:47:59.641Z,14.95
2022-07-26T22:50:26.308Z,14.88
2022-07-26T22:52:53.152Z,14.92
2022-07-26T22:55:20.274Z,14.94
2022-07-26T22:57:46.943Z,14.86
2022-07-26T23:00:15.786Z,14.82
2022-07-26T23:02:42.801Z,14.79
2022-07-26T23:05:10.015Z,14.77
2022-07-26T23:07:36.831Z,14.69
2022-07-26T23:10:06.426Z,14.66
2022-07-26T23:12:33.166Z,14.68
2022-07-26T23:14:59.979Z,14.68
2022-07-26T23:17:27.095Z,14.58
2022-07-26T23:19:53.668Z,14.50
2022-07-26T23:22:20.877Z,14.44
2022-07-26T23:24:47.421Z,14.43
2022-07-26T23:27:19.813Z,14.42
2022-07-26T23:29:49.094Z,14.37
2022-07-26T23:32:16.371Z,14.41
2022-07-26T23:34:43.013Z,14.43
2022-07-26T23:37:09.553Z,14.42
2022-07-26T23:39:36.099Z,14.46
2022-07-26T23:42:03.030Z,14.42
2022-07-26T23:44:31.000Z,14.50
2022-07-26T23:46:59.181Z,14.54
2022-07-26T23:49:25.924Z,14.29
2022-07-26T23:51:53.252Z,14.14
2022-07-26T23:54:19.794Z,14.07
2022-07-26T23:56:46.319Z,14.09
2022-07-26T23:59:13.675Z,13.93
